Time;durP1;ratioP1;P1;durP2;ratioP2;P2;SDS_P1;SDS_P2;PMS_P1;PMS_P2;Temp;Humidity;BMP_temperature;BMP_pressure;BME280_temperature;BME280_humidity;BME280_pressure;Samples;Min_cycle;Max_cycle;Signal;HPM_P1;HPM_P2
2021/06/24 00:01:58;;;;;;;;;;;14.10;99.90;;;;;;4964012;28;19914;-78
2021/06/24 00:04:23;;;;;;;;;;;14.00;99.90;;;;;;4951755;28;19911;-80
2021/06/24 00:06:49;;;;;;;;;;;14.10;99.90;;;;;;4954002;28;19910;-77
2021/06/24 00:09:15;;;;;;;;;;;14.10;99.90;;;;;;4957311;28;19914;-77
2021/06/24 00:11:41;;;;;;;;;;;14.10;99.90;;;;;;4954271;28;19921;-80
2021/06/24 00:14:06;;;;;;;;;;;14.00;99.90;;;;;;4949675;28;20287;-81
2021/06/24 00:16:32;;;;;;;;;;;14.00;99.90;;;;;;4952630;28;19918;-79
2021/06/24 00:18:57;;;;;;;;;;;14.00;99.90;;;;;;4949732;28;19972;-78
2021/06/24 00:21:23;;;;;;;;;;;14.00;99.90;;;;;;4951304;28;20232;-77
2021/06/24 00:23:49;;;;;;;;;;;14.00;99.90;;;;;;4952284;28;19910;-79
2021/06/24 00:26:14;;;;;;;;;;;14.00;99.90;;;;;;4963929;28;19914;-79
2021/06/24 00:28:40;;;;;;;;;;;14.00;99.90;;;;;;4968014;28;20001;-78
2021/06/24 00:31:06;;;;;;;;;;;14.00;99.90;;;;;;4953571;28;20000;-78
2021/06/24 00:33:31;;;;;;;;;;;14.00;99.90;;;;;;4956970;28;19911;-78
2021/06/24 00:35:57;;;;;;;;;;;14.00;99.90;;;;;;4950191;28;19980;-78
2021/06/24 00:38:23;;;;;;;;;;;14.00;99.90;;;;;;4959769;28;19922;-78
2021/06/24 00:40:48;;;;;;;;;;;14.00;99.90;;;;;;4954388;28;19918;-79
2021/06/24 00:43:15;;;;;;;;;;;14.00;99.90;;;;;;4957796;28;19920;-78
2021/06/24 00:45:41;;;;;;;;;;;14.00;99.90;;;;;;4957531;28;20278;-78
2021/06/24 00:48:07;;;;;;;;;;;14.10;99.90;;;;;;4954035;28;19911;-78
2021/06/24 00:50:33;;;;;;;;;;;14.00;99.90;;;;;;4951743;28;19953;-79
2021/06/24 00:52:59;;;;;;;;;;;14.00;99.90;;;;;;4977001;28;19960;-79
2021/06/24 00:55:40;;;;;;;;;;;14.00;99.90;;;;;;4987966;28;19957;-79
2021/06/24 00:58:22;;;;;;;;;;;14.00;99.90;;;;;;4988589;28;19918;-79
2021/06/24 01:00:53;;;;;;;;;;;14.00;99.90;;;;;;4964969;28;19911;-79
2021/06/24 01:03:19;;;;;;;;;;;14.00;99.90;;;;;;4969880;28;19910;-80
2021/06/24 01:05:44;;;;;;;;;;;14.00;99.90;;;;;;4954356;28;19921;-78
2021/06/24 01:08:11;;;;;;;;;;;14.00;99.90;;;;;;4988312;28;19914;-78
2021/06/24 01:10:37;;;;;;;;;;;14.00;99.90;;;;;;4960139;28;19950;-79
2021/06/24 01:13:03;;;;;;;;;;;13.90;99.90;;;;;;4965776;28;19942;-79
2021/06/24 01:15:28;;;;;;;;;;;14.00;99.90;;;;;;4989236;28;19914;-78
2021/06/24 01:17:58;;;;;;;;;;;13.90;99.90;;;;;;4955365;28;19972;-80
2021/06/24 01:20:36;;;;;;;;;;;13.90;99.90;;;;;;4958780;28;19918;-79
2021/06/24 01:23:02;;;;;;;;;;;13.90;99.90;;;;;;4979357;28;19908;-79
2021/06/24 01:25:27;;;;;;;;;;;13.90;99.90;;;;;;4948502;28;20196;-78
2021/06/24 01:28:00;;;;;;;;;;;13.90;99.90;;;;;;4958899;28;19910;-79
2021/06/24 01:30:26;;;;;;;;;;;13.90;99.90;;;;;;4956721;29;19963;-79
2021/06/24 01:32:52;;;;;;;;;;;13.90;99.90;;;;;;4960664;28;20009;-79
2021/06/24 01:35:19;;;;;;;;;;;13.90;99.90;;;;;;4955635;28;19989;-79
2021/06/24 01:37:44;;;;;;;;;;;13.90;99.90;;;;;;4959555;28;19906;-79
2021/06/24 01:40:10;;;;;;;;;;;13.90;99.90;;;;;;4953115;28;19975;-79
2021/06/24 01:42:36;;;;;;;;;;;13.90;99.90;;;;;;4955739;28;20293;-78
2021/06/24 01:45:03;;;;;;;;;;;13.90;99.90;;;;;;4959475;28;19968;-80
2021/06/24 01:47:28;;;;;;;;;;;13.90;99.90;;;;;;4970924;28;20270;-80
2021/06/24 01:49:54;;;;;;;;;;;13.90;99.90;;;;;;4951764;28;19910;-79
2021/06/24 01:52:19;;;;;;;;;;;13.90;99.90;;;;;;4954815;28;19907;-79
2021/06/24 01:54:46;;;;;;;;;;;13.90;99.90;;;;;;4960690;28;20213;-79
2021/06/24 01:57:12;;;;;;;;;;;13.90;99.90;;;;;;4950950;28;19942;-80
2021/06/24 01:59:38;;;;;;;;;;;13.90;99.90;;;;;;4944062;28;20225;-79
2021/06/24 02:02:03;;;;;;;;;;;13.90;99.90;;;;;;4964374;28;19964;-79
2021/06/24 02:04:29;;;;;;;;;;;13.80;99.90;;;;;;4961986;28;19919;-77
2021/06/24 02:06:55;;;;;;;;;;;13.80;99.90;;;;;;4954057;28;20244;-78
2021/06/24 02:09:20;;;;;;;;;;;13.80;99.90;;;;;;4954692;28;19910;-78
2021/06/24 02:11:46;;;;;;;;;;;13.70;99.90;;;;;;4949825;28;19957;-78
2021/06/24 02:14:12;;;;;;;;;;;13.80;99.90;;;;;;4956017;28;19918;-79
2021/06/24 02:16:37;;;;;;;;;;;13.80;99.90;;;;;;4971478;28;19918;-79
2021/06/24 02:19:03;;;;;;;;;;;13.80;99.90;;;;;;4954398;28;19921;-79
2021/06/24 02:21:28;;;;;;;;;;;13.80;99.90;;;;;;4952268;28;19918;-79
2021/06/24 02:23:54;;;;;;;;;;;13.70;99.90;;;;;;4962609;28;19985;-78
2021/06/24 02:26:20;;;;;;;;;;;13.70;99.90;;;;;;4959729;28;20032;-80
2021/06/24 02:28:45;;;;;;;;;;;13.70;99.90;;;;;;4953370;28;19937;-78
2021/06/24 02:31:11;;;;;;;;;;;13.70;99.90;;;;;;4968570;28;19919;-79
2021/06/24 02:33:37;;;;;;;;;;;13.60;99.90;;;;;;4953147;28;19919;-82
2021/06/24 02:36:02;;;;;;;;;;;13.60;99.90;;;;;;4960925;28;19925;-79
2021/06/24 02:38:28;;;;;;;;;;;13.60;99.90;;;;;;4947473;28;19915;-78
2021/06/24 02:40:54;;;;;;;;;;;13.60;99.90;;;;;;4959635;28;19989;-79
2021/06/24 02:43:19;;;;;;;;;;;13.60;99.90;;;;;;4971414;28;20312;-78
2021/06/24 02:45:45;;;;;;;;;;;13.60;99.90;;;;;;4972030;28;19940;-78
2021/06/24 02:48:11;;;;;;;;;;;13.60;99.90;;;;;;4952304;28;20279;-78
2021/06/24 02:50:36;;;;;;;;;;;13.50;99.90;;;;;;4947725;28;19910;-78
2021/06/24 02:53:02;;;;;;;;;;;13.50;99.90;;;;;;4965152;28;19921;-80
2021/06/24 02:55:30;;;;;;;;;;;13.60;99.90;;;;;;4949181;28;20201;-79
2021/06/24 02:57:57;;;;;;;;;;;13.60;99.90;;;;;;4958839;28;19915;-80
2021/06/24 03:00:22;;;;;;;;;;;13.60;99.90;;;;;;5021652;28;19948;-80
2021/06/24 03:02:48;;;;;;;;;;;13.60;99.90;;;;;;4958113;28;20364;-79
2021/06/24 03:05:15;;;;;;;;;;;13.60;99.90;;;;;;4953449;28;19914;-80
2021/06/24 03:07:40;;;;;;;;;;;13.60;99.90;;;;;;4971397;28;19918;-79
2021/06/24 03:10:06;;;;;;;;;;;13.60;99.90;;;;;;4989215;28;20254;-80
2021/06/24 03:12:32;;;;;;;;;;;13.60;99.90;;;;;;4962988;28;20268;-79
2021/06/24 03:14:57;;;;;;;;;;;13.60;99.90;;;;;;4958389;28;19957;-80
2021/06/24 03:17:23;;;;;;;;;;;13.70;99.90;;;;;;4975211;28;19908;-80
2021/06/24 03:19:49;;;;;;;;;;;13.70;99.90;;;;;;4977729;28;19918;-78
2021/06/24 03:22:14;;;;;;;;;;;13.60;99.90;;;;;;4964440;28;19914;-79
2021/06/24 03:24:40;;;;;;;;;;;13.60;99.90;;;;;;4946471;28;19906;-80
2021/06/24 03:27:05;;;;;;;;;;;13.60;99.90;;;;;;4963967;28;19917;-79
2021/06/24 03:29:31;;;;;;;;;;;13.60;99.90;;;;;;4965430;28;19925;-80
2021/06/24 03:31:56;;;;;;;;;;;13.60;99.90;;;;;;4969278;28;19914;-80
2021/06/24 03:34:22;;;;;;;;;;;13.60;99.90;;;;;;4952060;28;19929;-79
2021/06/24 03:36:47;;;;;;;;;;;13.60;99.90;;;;;;4950382;28;19988;-79
2021/06/24 03:39:13;;;;;;;;;;;13.60;99.90;;;;;;4973132;28;20313;-79
2021/06/24 03:41:39;;;;;;;;;;;13.60;99.90;;;;;;4974830;28;19917;-79
2021/06/24 03:44:04;;;;;;;;;;;13.60;99.90;;;;;;4951363;28;19989;-79
2021/06/24 03:46:30;;;;;;;;;;;13.60;99.90;;;;;;4966642;28;19989;-79
2021/06/24 03:48:56;;;;;;;;;;;13.50;99.90;;;;;;4956327;28;19910;-79
2021/06/24 03:51:21;;;;;;;;;;;13.60;99.90;;;;;;4966765;28;20332;-79
2021/06/24 03:53:47;;;;;;;;;;;13.50;99.90;;;;;;4979269;28;20297;-79
2021/06/24 03:56:12;;;;;;;;;;;13.50;99.90;;;;;;4989701;28;19917;-80
2021/06/24 03:58:38;;;;;;;;;;;13.50;99.90;;;;;;4974395;28;19984;-79
2021/06/24 04:01:04;;;;;;;;;;;13.50;99.90;;;;;;4956586;28;20346;-79
2021/06/24 04:03:29;;;;;;;;;;;13.50;99.90;;;;;;4969985;28;19914;-79
2021/06/24 04:05:55;;;;;;;;;;;13.50;99.90;;;;;;4959007;28;19937;-79
2021/06/24 04:08:20;;;;;;;;;;;13.50;99.90;;;;;;4974877;28;19914;-79
2021/06/24 04:10:46;;;;;;;;;;;13.50;99.90;;;;;;4967774;28;19930;-79
2021/06/24 04:13:11;;;;;;;;;;;13.50;99.90;;;;;;4981468;28;19989;-79
2021/06/24 04:15:37;;;;;;;;;;;13.60;99.90;;;;;;4969553;28;19916;-79
2021/06/24 04:18:04;;;;;;;;;;;13.50;99.90;;;;;;4965967;28;19917;-78
2021/06/24 04:20:30;;;;;;;;;;;13.60;99.90;;;;;;4960001;28;19930;-78
2021/06/24 04:22:56;;;;;;;;;;;13.60;99.90;;;;;;4981952;28;20320;-79
2021/06/24 04:25:22;;;;;;;;;;;13.60;99.90;;;;;;4989247;28;19967;-78
2021/06/24 04:27:48;;;;;;;;;;;13.60;99.90;;;;;;4952391;28;20312;-79
2021/06/24 04:30:14;;;;;;;;;;;13.70;99.90;;;;;;4984375;28;19943;-79
2021/06/24 04:32:39;;;;;;;;;;;13.70;99.90;;;;;;4970211;28;20257;-78
2021/06/24 04:35:07;;;;;;;;;;;13.60;99.90;;;;;;4964582;28;20060;-78
2021/06/24 04:37:32;;;;;;;;;;;13.70;99.90;;;;;;4949844;28;19918;-79
2021/06/24 04:39:58;;;;;;;;;;;13.70;99.90;;;;;;4953931;28;19914;-79
2021/06/24 04:42:23;;;;;;;;;;;13.70;99.90;;;;;;4960845;28;19917;-80
2021/06/24 04:44:49;;;;;;;;;;;13.70;99.90;;;;;;4953253;28;20089;-78
2021/06/24 04:47:15;;;;;;;;;;;13.70;99.90;;;;;;4951317;28;20498;-79
2021/06/24 04:49:41;;;;;;;;;;;13.70;99.90;;;;;;4953137;28;19921;-79
2021/06/24 04:52:07;;;;;;;;;;;13.70;99.90;;;;;;4953852;28;20258;-79
2021/06/24 04:54:33;;;;;;;;;;;13.70;99.90;;;;;;4952931;28;20017;-78
2021/06/24 04:56:58;;;;;;;;;;;13.70;99.90;;;;;;4953824;28;19911;-79
2021/06/24 04:59:24;;;;;;;;;;;13.70;99.90;;;;;;4958960;28;19921;-79
2021/06/24 05:01:49;;;;;;;;;;;13.80;99.90;;;;;;4962044;28;20224;-79
2021/06/24 05:04:15;;;;;;;;;;;13.80;99.90;;;;;;4964709;28;20283;-79
2021/06/24 05:06:41;;;;;;;;;;;13.80;99.90;;;;;;4958707;28;19960;-79
2021/06/24 05:09:07;;;;;;;;;;;13.80;99.90;;;;;;4948221;28;19915;-80
2021/06/24 05:11:33;;;;;;;;;;;13.90;99.90;;;;;;4955028;28;19974;-79
2021/06/24 05:13:58;;;;;;;;;;;13.80;99.90;;;;;;4960578;28;19917;-80
2021/06/24 05:16:24;;;;;;;;;;;13.90;99.90;;;;;;4963587;28;19911;-79
2021/06/24 05:18:49;;;;;;;;;;;13.90;99.90;;;;;;4956804;28;19918;-80
2021/06/24 05:21:15;;;;;;;;;;;13.80;99.90;;;;;;4952934;28;19918;-79
2021/06/24 05:23:42;;;;;;;;;;;13.90;99.90;;;;;;4948356;28;20190;-80
2021/06/24 05:26:08;;;;;;;;;;;13.90;99.90;;;;;;4967108;28;19993;-79
2021/06/24 05:28:33;;;;;;;;;;;14.00;99.90;;;;;;4950562;28;20361;-79
2021/06/24 05:30:59;;;;;;;;;;;14.00;99.90;;;;;;4945666;28;19914;-80
2021/06/24 05:33:24;;;;;;;;;;;14.10;99.90;;;;;;4951888;28;20248;-79
2021/06/24 05:35:50;;;;;;;;;;;14.10;99.90;;;;;;4954484;28;20164;-79
2021/06/24 05:38:16;;;;;;;;;;;14.10;99.90;;;;;;4962936;28;20622;-80
2021/06/24 05:40:45;;;;;;;;;;;14.10;99.90;;;;;;4980374;28;19914;-80
2021/06/24 05:43:11;;;;;;;;;;;14.20;99.90;;;;;;4957329;28;20068;-80
2021/06/24 05:45:36;;;;;;;;;;;14.20;99.90;;;;;;4966062;28;20013;-80
2021/06/24 05:48:02;;;;;;;;;;;14.20;99.90;;;;;;4960122;28;20376;-80
2021/06/24 05:50:28;;;;;;;;;;;14.20;99.90;;;;;;4955206;28;20219;-79
2021/06/24 05:52:54;;;;;;;;;;;14.30;99.90;;;;;;4963438;28;19909;-78
2021/06/24 05:55:20;;;;;;;;;;;14.30;99.90;;;;;;4967655;28;20301;-79
2021/06/24 05:57:46;;;;;;;;;;;14.30;99.90;;;;;;4963535;28;19936;-79
2021/06/24 06:00:13;;;;;;;;;;;14.40;99.90;;;;;;4996144;28;19917;-79
2021/06/24 06:02:39;;;;;;;;;;;14.50;99.90;;;;;;4988012;28;19924;-80
2021/06/24 06:05:05;;;;;;;;;;;14.50;99.90;;;;;;4961802;28;20011;-78
2021/06/24 06:07:31;;;;;;;;;;;14.60;99.90;;;;;;4983354;28;20324;-81
2021/06/24 06:09:57;;;;;;;;;;;14.70;99.90;;;;;;4991249;28;19958;-80
2021/06/24 06:12:22;;;;;;;;;;;14.70;99.90;;;;;;4972934;28;19993;-80
2021/06/24 06:14:48;;;;;;;;;;;14.80;99.90;;;;;;4965089;28;19988;-81
2021/06/24 06:17:13;;;;;;;;;;;14.80;99.90;;;;;;4957886;28;19991;-79
2021/06/24 06:19:39;;;;;;;;;;;14.80;99.90;;;;;;4977492;28;20352;-80
2021/06/24 06:22:04;;;;;;;;;;;14.90;99.90;;;;;;4971185;28;19917;-79
2021/06/24 06:24:30;;;;;;;;;;;15.00;99.90;;;;;;4977814;28;19937;-79
2021/06/24 06:26:56;;;;;;;;;;;14.90;99.90;;;;;;4982859;28;19917;-78
2021/06/24 06:29:21;;;;;;;;;;;14.90;99.90;;;;;;4966805;28;19949;-82
2021/06/24 06:31:47;;;;;;;;;;;15.00;99.90;;;;;;4963476;28;19925;-79
2021/06/24 06:34:12;;;;;;;;;;;15.00;99.90;;;;;;4969744;28;19921;-81
2021/06/24 06:36:38;;;;;;;;;;;15.00;99.90;;;;;;4980391;28;19921;-78
2021/06/24 06:39:05;;;;;;;;;;;15.10;99.90;;;;;;4986867;28;20269;-79
2021/06/24 06:41:30;;;;;;;;;;;15.10;99.90;;;;;;4962256;28;19914;-79
2021/06/24 06:43:56;;;;;;;;;;;15.10;99.90;;;;;;4954081;28;19964;-79
2021/06/24 06:46:21;;;;;;;;;;;15.10;99.90;;;;;;4982536;28;19908;-79
2021/06/24 06:48:47;;;;;;;;;;;15.10;99.90;;;;;;4969893;28;20380;-80
2021/06/24 06:51:12;;;;;;;;;;;15.10;99.90;;;;;;4968186;28;19914;-79
2021/06/24 06:53:38;;;;;;;;;;;15.00;99.90;;;;;;4962789;28;20297;-81
2021/06/24 06:56:04;;;;;;;;;;;15.10;99.90;;;;;;4975514;28;19918;-79
2021/06/24 06:58:30;;;;;;;;;;;15.10;99.90;;;;;;4948531;28;19910;-81
2021/06/24 07:00:55;;;;;;;;;;;15.10;99.90;;;;;;4936526;29;20001;-77
2021/06/24 07:03:21;;;;;;;;;;;15.10;99.90;;;;;;4963510;28;19937;-81
2021/06/24 07:05:47;;;;;;;;;;;15.10;99.90;;;;;;4961337;28;19914;-78
2021/06/24 07:08:12;;;;;;;;;;;15.00;99.90;;;;;;4951142;28;20309;-79
2021/06/24 07:10:38;;;;;;;;;;;15.10;99.90;;;;;;4969930;28;19929;-79
2021/06/24 07:13:04;;;;;;;;;;;15.10;99.90;;;;;;4953843;28;19910;-78
2021/06/24 07:15:29;;;;;;;;;;;15.10;99.90;;;;;;4967704;28;19914;-80
2021/06/24 07:17:55;;;;;;;;;;;15.20;99.90;;;;;;4975378;28;19920;-79
2021/06/24 07:20:21;;;;;;;;;;;15.10;99.90;;;;;;5004154;28;19920;-80
2021/06/24 07:22:46;;;;;;;;;;;15.20;99.90;;;;;;4953797;28;19915;-82
2021/06/24 07:25:17;;;;;;;;;;;15.20;99.90;;;;;;4954070;28;19907;-79
2021/06/24 07:27:44;;;;;;;;;;;15.10;99.90;;;;;;4965358;28;20004;-78
2021/06/24 07:30:10;;;;;;;;;;;15.10;99.90;;;;;;4957810;28;19985;-78
2021/06/24 07:32:36;;;;;;;;;;;15.10;99.90;;;;;;4953453;28;19910;-76
2021/06/24 07:35:01;;;;;;;;;;;15.20;99.90;;;;;;4954643;28;20263;-82
2021/06/24 07:37:27;;;;;;;;;;;15.20;99.90;;;;;;4952139;28;19919;-77
2021/06/24 07:39:53;;;;;;;;;;;15.20;99.90;;;;;;4949033;28;19932;-77
2021/06/24 07:42:19;;;;;;;;;;;15.20;99.90;;;;;;4947915;28;19914;-80
2021/06/24 07:44:45;;;;;;;;;;;15.20;99.90;;;;;;4950673;28;19981;-83
2021/06/24 07:47:11;;;;;;;;;;;15.30;99.90;;;;;;4967394;28;19953;-76
2021/06/24 07:49:37;;;;;;;;;;;15.40;99.90;;;;;;4951396;28;19946;-80
2021/06/24 07:52:03;;;;;;;;;;;15.40;99.90;;;;;;4935447;28;19907;-77
2021/06/24 07:54:28;;;;;;;;;;;15.40;99.90;;;;;;4963932;28;19956;-81
2021/06/24 07:56:55;;;;;;;;;;;15.40;99.90;;;;;;4953387;28;19960;-81
2021/06/24 07:59:21;;;;;;;;;;;15.40;99.90;;;;;;4955892;28;19918;-80
2021/06/24 08:01:46;;;;;;;;;;;15.50;99.90;;;;;;4969642;28;19913;-80
2021/06/24 08:04:12;;;;;;;;;;;15.50;99.90;;;;;;4954363;28;20048;-77
2021/06/24 08:06:37;;;;;;;;;;;15.50;99.90;;;;;;4945596;28;19907;-79
2021/06/24 08:09:04;;;;;;;;;;;15.50;99.90;;;;;;4966133;28;20006;-81
2021/06/24 08:11:30;;;;;;;;;;;15.50;99.90;;;;;;4948342;29;19921;-80
2021/06/24 08:13:55;;;;;;;;;;;15.50;99.90;;;;;;4964672;28;19912;-76
2021/06/24 08:16:21;;;;;;;;;;;15.50;99.90;;;;;;4967055;28;19950;-80
2021/06/24 08:18:47;;;;;;;;;;;15.50;99.90;;;;;;4960404;28;19931;-82
2021/06/24 08:21:13;;;;;;;;;;;15.50;99.90;;;;;;4943273;28;19956;-77
2021/06/24 08:23:38;;;;;;;;;;;15.50;99.90;;;;;;4941173;28;19910;-78
2021/06/24 08:26:04;;;;;;;;;;;15.40;99.90;;;;;;4952742;28;19993;-77
2021/06/24 08:28:30;;;;;;;;;;;15.40;99.90;;;;;;4950579;28;19915;-84
2021/06/24 08:30:59;;;;;;;;;;;15.40;99.90;;;;;;4952107;28;19975;-78
2021/06/24 08:33:25;;;;;;;;;;;15.40;99.90;;;;;;4956986;28;19910;-79
2021/06/24 08:35:50;;;;;;;;;;;15.40;99.90;;;;;;4953101;28;19910;-76
2021/06/24 08:38:16;;;;;;;;;;;15.40;99.90;;;;;;4953720;28;19922;-77
2021/06/24 08:40:41;;;;;;;;;;;15.40;99.90;;;;;;4964627;28;20001;-79
2021/06/24 08:43:11;;;;;;;;;;;15.30;99.90;;;;;;4954343;28;19997;-76
2021/06/24 08:45:39;;;;;;;;;;;15.30;99.90;;;;;;4965119;28;20213;-78
2021/06/24 08:48:09;;;;;;;;;;;15.30;99.90;;;;;;4953452;28;20319;-77
2021/06/24 08:50:35;;;;;;;;;;;15.30;99.90;;;;;;4953602;28;20308;-77
2021/06/24 08:53:01;;;;;;;;;;;15.30;99.90;;;;;;4954039;28;19918;-79
2021/06/24 08:55:36;;;;;;;;;;;15.20;99.90;;;;;;4953313;28;19937;-78
2021/06/24 08:58:02;;;;;;;;;;;15.20;99.90;;;;;;4965711;28;19914;-83
2021/06/24 09:00:27;;;;;;;;;;;15.20;99.90;;;;;;4968979;28;20047;-79
2021/06/24 09:02:54;;;;;;;;;;;15.30;99.90;;;;;;4953933;28;19907;-78
2021/06/24 09:05:20;;;;;;;;;;;15.30;99.90;;;;;;4951407;28;19914;-77
2021/06/24 09:07:50;;;;;;;;;;;15.40;99.90;;;;;;4952739;28;19923;-83
2021/06/24 09:10:16;;;;;;;;;;;15.40;99.90;;;;;;5022090;28;19913;-83
2021/06/24 09:12:49;;;;;;;;;;;15.50;99.90;;;;;;4953772;28;19918;-78
2021/06/24 09:15:14;;;;;;;;;;;15.60;99.90;;;;;;4952893;28;19913;-79
2021/06/24 09:17:44;;;;;;;;;;;15.70;99.90;;;;;;4952732;28;20275;-78
2021/06/24 09:20:19;;;;;;;;;;;15.80;99.90;;;;;;4943780;28;19973;-80
2021/06/24 09:23:03;;;;;;;;;;;15.90;99.90;;;;;;4958525;28;19910;-81
2021/06/24 09:25:28;;;;;;;;;;;16.00;99.90;;;;;;5015790;28;19919;-76
2021/06/24 09:27:54;;;;;;;;;;;15.80;99.90;;;;;;4952015;28;20267;-78
2021/06/24 09:30:28;;;;;;;;;;;15.90;99.90;;;;;;4952573;28;20382;-85
2021/06/24 09:32:53;;;;;;;;;;;15.90;99.90;;;;;;4983113;28;19915;-79
2021/06/24 09:35:29;;;;;;;;;;;15.90;99.90;;;;;;4966074;28;19938;-76
2021/06/24 09:37:59;;;;;;;;;;;16.00;99.90;;;;;;4970907;28;20003;-78
2021/06/24 09:40:44;;;;;;;;;;;16.10;99.90;;;;;;4967915;28;19956;-85
2021/06/24 09:43:13;;;;;;;;;;;16.10;99.90;;;;;;4992707;28;19913;-87
2021/06/24 09:45:39;;;;;;;;;;;16.20;99.90;;;;;;4973311;28;19913;-81
2021/06/24 09:48:11;;;;;;;;;;;16.20;99.90;;;;;;4968472;28;20197;-78
2021/06/24 09:50:39;;;;;;;;;;;16.30;99.90;;;;;;4983570;28;19909;-78
2021/06/24 09:53:06;;;;;;;;;;;16.30;99.90;;;;;;4986104;28;19917;-82
2021/06/24 09:55:33;;;;;;;;;;;16.20;99.90;;;;;;4974445;28;19929;-79
2021/06/24 09:58:15;;;;;;;;;;;16.20;99.90;;;;;;4978968;28;19914;-82
2021/06/24 10:00:48;;;;;;;;;;;16.10;99.90;;;;;;5009265;28;19960;-81
2021/06/24 10:03:14;;;;;;;;;;;16.20;99.90;;;;;;4986171;28;19909;-80
2021/06/24 10:05:43;;;;;;;;;;;16.20;99.90;;;;;;4994495;28;19960;-83
2021/06/24 10:08:09;;;;;;;;;;;16.20;99.90;;;;;;4964572;28;19946;-81
2021/06/24 10:10:35;;;;;;;;;;;16.30;99.90;;;;;;4970937;28;20571;-82
2021/06/24 10:13:01;;;;;;;;;;;16.50;99.90;;;;;;4982626;28;19918;-81
2021/06/24 10:15:28;;;;;;;;;;;16.60;99.90;;;;;;5016446;28;19915;-80
2021/06/24 10:17:55;;;;;;;;;;;16.70;99.90;;;;;;5018529;28;19950;-81
2021/06/24 10:20:21;;;;;;;;;;;16.80;99.90;;;;;;4985433;28;20530;-80
2021/06/24 10:22:53;;;;;;;;;;;16.80;99.90;;;;;;4965838;28;19918;-81
2021/06/24 10:25:19;;;;;;;;;;;16.80;99.90;;;;;;4956699;28;19938;-81
2021/06/24 10:27:45;;;;;;;;;;;16.70;99.90;;;;;;4993705;28;19961;-81
2021/06/24 10:30:12;;;;;;;;;;;16.60;99.90;;;;;;5002591;28;19960;-82
2021/06/24 10:32:42;;;;;;;;;;;16.60;99.90;;;;;;4969079;28;20009;-80
2021/06/24 10:35:24;;;;;;;;;;;16.60;99.90;;;;;;4981110;28;19911;-78
2021/06/24 10:37:50;;;;;;;;;;;16.40;99.90;;;;;;4949992;28;20008;-80
2021/06/24 10:40:33;;;;;;;;;;;16.30;99.90;;;;;;5017043;28;19917;-80
2021/06/24 10:43:00;;;;;;;;;;;16.40;99.90;;;;;;4976671;28;20009;-80
2021/06/24 10:45:27;;;;;;;;;;;16.70;99.90;;;;;;4969580;28;19942;-81
2021/06/24 10:47:55;;;;;;;;;;;16.80;99.90;;;;;;4964418;28;19914;-80
2021/06/24 10:50:30;;;;;;;;;;;17.00;99.90;;;;;;4963686;28;19915;-81
2021/06/24 10:52:56;;;;;;;;;;;17.10;99.90;;;;;;4971882;28;19961;-80
2021/06/24 10:55:33;;;;;;;;;;;17.20;99.90;;;;;;4967230;28;19913;-81
2021/06/24 10:57:59;;;;;;;;;;;17.10;99.90;;;;;;4969762;28;19907;-79
2021/06/24 11:00:44;;;;;;;;;;;17.00;99.90;;;;;;4954576;28;20596;-78
2021/06/24 11:03:11;;;;;;;;;;;17.00;99.90;;;;;;5031355;28;19971;-79
2021/06/24 11:05:47;;;;;;;;;;;17.00;99.90;;;;;;5013554;28;19942;-79
2021/06/24 11:08:13;;;;;;;;;;;17.10;99.90;;;;;;4966027;28;20472;-78
2021/06/24 11:10:58;;;;;;;;;;;17.00;99.90;;;;;;5033918;28;20004;-79
2021/06/24 11:14:08;;;;;;;;;;;16.90;99.90;;;;;;5025860;28;19925;-78
2021/06/24 11:16:27;;;;;;;;;;;17.10;99.90;;;;;;4989311;28;20268;-79
2021/06/24 11:19:02;;;;;;;;;;;17.30;99.90;;;;;;5043943;28;20008;-79
2021/06/24 11:21:27;;;;;;;;;;;17.50;99.90;;;;;;4968704;28;19918;-77
2021/06/24 11:23:54;;;;;;;;;;;17.50;99.90;;;;;;4952018;28;19918;-78
2021/06/24 11:26:26;;;;;;;;;;;17.50;99.90;;;;;;4951116;28;20315;-79
2021/06/24 11:28:57;;;;;;;;;;;17.90;99.90;;;;;;4993664;28;19904;-78
2021/06/24 11:31:55;;;;;;;;;;;18.00;99.90;;;;;;4971216;28;20002;-81
2021/06/24 11:37:30;;;;;;;;;;;18.40;99.90;;;;;;5013009;28;19909;-78
2021/06/24 11:40:00;;;;;;;;;;;18.20;99.90;;;;;;4993308;28;20035;-84
2021/06/24 11:42:32;;;;;;;;;;;18.10;99.90;;;;;;5007071;28;20290;-80
2021/06/24 11:44:58;;;;;;;;;;;18.00;99.90;;;;;;4964886;28;19918;-79
2021/06/24 11:47:28;;;;;;;;;;;18.00;99.90;;;;;;4955968;28;19906;-79
2021/06/24 12:04:01;;;;;;;;;;;18.20;99.90;;;;;;4998294;28;19913;-78
2021/06/24 12:06:38;;;;;;;;;;;18.10;99.90;;;;;;4994041;28;20354;-78
2021/06/24 12:09:04;;;;;;;;;;;18.00;99.90;;;;;;4958432;28;19906;-81
2021/06/24 12:11:34;;;;;;;;;;;18.20;99.90;;;;;;4964141;28;20327;-76
2021/06/24 12:14:13;;;;;;;;;;;18.10;99.90;;;;;;4960991;28;20008;-80
2021/06/24 12:16:38;;;;;;;;;;;17.80;99.90;;;;;;4970886;28;20217;-80
2021/06/24 12:19:04;;;;;;;;;;;17.50;99.90;;;;;;5006759;28;19938;-80
2021/06/24 12:21:30;;;;;;;;;;;17.70;99.90;;;;;;4984362;28;20441;-78
2021/06/24 12:23:56;;;;;;;;;;;17.80;99.90;;;;;;4956181;28;19930;-79
2021/06/24 12:26:22;;;;;;;;;;;17.70;99.90;;;;;;4979677;28;20320;-78
2021/06/24 12:28:47;;;;;;;;;;;17.90;99.90;;;;;;4968392;28;20297;-79
2021/06/24 12:31:20;;;;;;;;;;;18.00;99.90;;;;;;4970553;28;19915;-79
2021/06/24 12:33:47;;;;;;;;;;;17.70;99.90;;;;;;4968145;28;19952;-76
2021/06/24 12:36:13;;;;;;;;;;;17.80;99.90;;;;;;4973918;28;20007;-77
2021/06/24 12:38:42;;;;;;;;;;;17.80;99.90;;;;;;5032000;28;20024;-79
2021/06/24 12:41:09;;;;;;;;;;;17.80;99.90;;;;;;5005202;28;19915;-86
2021/06/24 12:43:36;;;;;;;;;;;17.80;99.90;;;;;;4960309;28;19910;-79
2021/06/24 12:46:03;;;;;;;;;;;18.00;99.90;;;;;;4991195;28;20266;-80
2021/06/24 12:48:49;;;;;;;;;;;18.20;99.90;;;;;;4954658;28;19960;-80
2021/06/24 12:51:15;;;;;;;;;;;18.20;99.90;;;;;;4947238;28;19941;-80
2021/06/24 12:53:41;;;;;;;;;;;18.20;99.90;;;;;;4979478;28;20379;-81
2021/06/24 12:56:25;;;;;;;;;;;18.40;99.90;;;;;;4962830;28;19911;-80
2021/06/24 12:58:52;;;;;;;;;;;18.30;99.90;;;;;;4989825;28;19951;-79
2021/06/24 13:01:18;;;;;;;;;;;18.30;99.90;;;;;;4971674;28;19918;-80
2021/06/24 13:03:57;;;;;;;;;;;18.40;99.90;;;;;;4970679;28;20017;-80
2021/06/24 13:06:27;;;;;;;;;;;18.30;99.90;;;;;;4971899;28;19935;-80
2021/06/24 13:08:56;;;;;;;;;;;18.30;99.90;;;;;;4951214;28;19946;-79
2021/06/24 13:11:23;;;;;;;;;;;18.30;99.90;;;;;;4980776;28;19910;-80
2021/06/24 13:13:59;;;;;;;;;;;18.30;99.90;;;;;;4986671;28;19914;-80
2021/06/24 13:16:25;;;;;;;;;;;18.40;99.90;;;;;;4952096;28;20005;-82
2021/06/24 13:18:55;;;;;;;;;;;18.30;99.90;;;;;;5001060;28;20118;-77
2021/06/24 13:21:21;;;;;;;;;;;18.40;99.90;;;;;;4970928;28;20362;-78
2021/06/24 13:23:47;;;;;;;;;;;18.40;99.90;;;;;;4960640;28;19910;-80
2021/06/24 13:26:17;;;;;;;;;;;18.30;99.90;;;;;;5003275;28;19911;-78
2021/06/24 13:28:44;;;;;;;;;;;18.30;99.90;;;;;;5055313;28;20306;-86
2021/06/24 13:31:10;;;;;;;;;;;18.40;99.90;;;;;;4990531;28;19910;-79
2021/06/24 13:33:37;;;;;;;;;;;18.60;99.90;;;;;;4971917;28;19910;-82
2021/06/24 13:36:19;;;;;;;;;;;18.60;99.90;;;;;;4961754;28;19906;-84
2021/06/24 13:38:57;;;;;;;;;;;18.70;99.90;;;;;;4975023;28;19922;-81
2021/06/24 13:41:24;;;;;;;;;;;18.80;99.90;;;;;;4988184;28;20253;-78
2021/06/24 13:44:07;;;;;;;;;;;18.60;99.90;;;;;;4988572;28;19913;-82
2021/06/24 13:46:33;;;;;;;;;;;18.60;99.90;;;;;;4972447;28;19910;-78
2021/06/24 13:48:58;;;;;;;;;;;18.50;99.90;;;;;;5023549;28;19955;-75
2021/06/24 13:51:24;;;;;;;;;;;18.40;99.90;;;;;;5019433;28;20291;-83
2021/06/24 13:53:57;;;;;;;;;;;18.70;99.90;;;;;;4967506;28;19910;-80
2021/06/24 13:56:22;;;;;;;;;;;18.70;99.90;;;;;;4962003;28;19963;-79
2021/06/24 13:58:48;;;;;;;;;;;18.60;99.90;;;;;;4993481;28;19913;-77
2021/06/24 14:01:13;;;;;;;;;;;18.50;99.90;;;;;;5032975;28;19908;-81
2021/06/24 14:03:39;;;;;;;;;;;18.50;99.90;;;;;;4998885;28;20025;-77
2021/06/24 14:06:05;;;;;;;;;;;18.50;99.90;;;;;;4991845;28;19921;-78
2021/06/24 14:08:30;;;;;;;;;;;18.50;99.90;;;;;;5003617;28;20008;-79
2021/06/24 14:10:56;;;;;;;;;;;18.60;99.90;;;;;;5027304;28;20001;-83
2021/06/24 14:13:21;;;;;;;;;;;18.70;99.90;;;;;;5020719;28;19912;-80
2021/06/24 14:15:47;;;;;;;;;;;18.80;99.90;;;;;;4963393;28;19915;-80
2021/06/24 14:18:12;;;;;;;;;;;18.70;99.90;;;;;;5009049;28;20330;-83
2021/06/24 14:20:40;;;;;;;;;;;18.70;99.90;;;;;;5003760;28;20314;-81
2021/06/24 14:23:06;;;;;;;;;;;18.80;99.90;;;;;;4961032;28;19921;-79
2021/06/24 14:25:33;;;;;;;;;;;18.80;99.90;;;;;;4984091;28;20213;-81
2021/06/24 14:27:59;;;;;;;;;;;18.70;99.90;;;;;;5007758;28;19906;-83
2021/06/24 14:30:24;;;;;;;;;;;18.90;99.90;;;;;;5006722;28;19915;-79
2021/06/24 14:32:50;;;;;;;;;;;18.90;99.90;;;;;;4989386;28;19909;-86
2021/06/24 14:35:15;;;;;;;;;;;18.80;99.90;;;;;;4988967;28;19961;-78